Time;durP1;ratioP1;P1;durP2;ratioP2;P2;SDS_P1;SDS_P2;PMS_P1;PMS_P2;Temp;Humidity;BMP_temperature;BMP_pressure;BME280_temperature;BME280_humidity;BME280_pressure;Samples;Min_cycle;Max_cycle;Signal;HPM_P1;HPM_P2
2023/02/26 00:01:23;;;;;;;38.65;24.20;;;179.50;2252.80;;;;;;5062518;28;20031;-69
2023/02/26 00:03:50;;;;;;;39.22;22.08;;;179.60;2252.80;;;;;;5059555;28;20045;-69
2023/02/26 00:06:16;;;;;;;29.73;18.75;;;179.70;2252.80;;;;;;5053602;28;20036;-69
2023/02/26 00:08:41;;;;;;;22.95;16.20;;;179.60;2252.80;;;;;;5052991;28;20071;-69
2023/02/26 00:11:09;;;;;;;30.15;20.10;;;179.30;2252.80;;;;;;5052814;28;20103;-67
2023/02/26 00:13:40;;;;;;;42.22;23.90;;;179.20;2252.80;;;;;;5053471;28;20052;-69
2023/02/26 00:16:25;;;;;;;39.03;22.60;;;154.50;2252.80;;;;;;5052801;28;20506;-66
2023/02/26 00:18:51;;;;;;;50.88;31.52;;;179.30;2252.80;;;;;;5048284;28;20463;-69
2023/02/26 00:21:21;;;;;;;42.45;26.13;;;179.30;2252.80;;;;;;5042896;28;20044;-68
2023/02/26 00:23:47;;;;;;;44.00;27.98;;;179.30;2252.80;;;;;;5053300;28;20051;-68
2023/02/26 00:26:13;;;;;;;35.22;22.17;;;154.50;2252.80;;;;;;5046158;28;20076;-67
2023/02/26 00:28:39;;;;;;;43.30;25.58;;;179.20;2252.80;;;;;;5036970;28;20032;-66
2023/02/26 00:31:06;;;;;;;43.97;25.77;;;154.40;2252.80;;;;;;5030148;28;20427;-66
2023/02/26 00:33:32;;;;;;;38.55;19.52;;;179.20;2252.80;;;;;;5037035;28;20028;-68
2023/02/26 00:36:28;;;;;;;30.48;14.45;;;154.50;2252.80;;;;;;5040945;28;20048;-67
2023/02/26 00:38:56;;;;;;;30.30;16.75;;;179.20;2252.80;;;;;;5038368;28;20033;-67
2023/02/26 00:41:22;;;;;;;26.38;15.88;;;154.40;2252.80;;;;;;5036430;28;20082;-67
2023/02/26 00:43:48;;;;;;;22.92;13.77;;;154.50;2252.80;;;;;;5039399;28;20361;-67
2023/02/26 00:46:53;;;;;;;16.83;10.60;;;179.20;2252.80;;;;;;5034750;28;20048;-67
2023/02/26 00:49:43;;;;;;;21.10;14.70;;;154.50;2252.80;;;;;;5040432;28;20037;-67
2023/02/26 00:52:19;;;;;;;25.35;16.45;;;154.50;2252.80;;;;;;5031190;28;20610;-67
2023/02/26 00:54:44;;;;;;;25.50;16.73;;;154.50;2252.80;;;;;;5033993;28;20029;-66
2023/02/26 00:57:10;;;;;;;23.60;16.63;;;179.30;2252.80;;;;;;5040964;28;20383;-67
2023/02/26 00:59:36;;;;;;;35.67;19.52;;;179.20;2252.80;;;;;;5039075;28;20142;-67
2023/02/26 01:02:01;;;;;;;24.45;16.42;;;179.20;2252.80;;;;;;5034644;28;20060;-67
2023/02/26 01:04:28;;;;;;;27.23;16.42;;;154.50;2252.80;;;;;;5043690;28;20095;-66
2023/02/26 01:06:56;;;;;;;23.50;14.93;;;154.50;2252.80;;;;;;5035330;28;20496;-68
2023/02/26 01:09:32;;;;;;;28.65;18.10;;;154.50;2252.80;;;;;;5040676;28;20067;-67
2023/02/26 01:12:01;;;;;;;38.15;21.30;;;154.50;2252.80;;;;;;5044846;28;20033;-68
2023/02/26 01:14:28;;;;;;;38.58;24.70;;;179.20;2252.80;;;;;;5034771;28;20075;-65
2023/02/26 01:17:28;;;;;;;30.63;20.60;;;154.50;2252.80;;;;;;5038395;28;20061;-68
2023/02/26 01:19:57;;;;;;;26.48;16.92;;;154.50;2252.80;;;;;;5035477;28;20563;-68
2023/02/26 01:22:28;;;;;;;33.70;20.50;;;179.30;2252.80;;;;;;5044255;28;20033;-67
2023/02/26 01:25:01;;;;;;;27.80;20.30;;;154.50;2252.80;;;;;;5033471;28;20123;-69
2023/02/26 01:27:27;;;;;;;26.10;17.42;;;154.50;2252.80;;;;;;5030557;28;20060;-67
2023/02/26 01:29:54;;;;;;;32.33;18.33;;;179.20;2252.80;;;;;;5041136;28;20024;-67
2023/02/26 01:32:34;;;;;;;37.72;20.58;;;179.20;2252.80;;;;;;5038286;28;20028;-69
2023/02/26 01:35:30;;;;;;;32.58;19.83;;;154.50;2252.80;;;;;;5042293;28;20029;-68
2023/02/26 01:38:06;;;;;;;25.70;18.13;;;154.50;2252.80;;;;;;5032570;28;20460;-67
2023/02/26 01:40:41;;;;;;;37.70;23.20;;;179.30;2252.80;;;;;;5031061;28;20387;-67
2023/02/26 01:43:16;;;;;;;33.53;22.33;;;179.40;2252.80;;;;;;5040565;28;20480;-67
2023/02/26 01:46:08;;;;;;;40.67;25.23;;;179.40;2252.80;;;;;;5035720;28;20394;-68
2023/02/26 01:48:55;;;;;;;34.53;20.48;;;179.50;2252.80;;;;;;5048128;28;20060;-66
2023/02/26 01:51:41;;;;;;;30.10;20.45;;;179.50;2252.80;;;;;;5039425;28;20479;-68
2023/02/26 01:54:08;;;;;;;25.83;16.63;;;179.40;2252.80;;;;;;5032668;28;20037;-67
2023/02/26 01:56:34;;;;;;;30.65;19.63;;;179.70;2252.80;;;;;;5040420;28;20648;-68
2023/02/26 01:59:04;;;;;;;34.10;21.13;;;179.30;2252.80;;;;;;5042021;28;20029;-69
2023/02/26 02:01:31;;;;;;;30.92;20.08;;;179.30;2252.80;;;;;;5036891;28;20025;-68
2023/02/26 02:03:58;;;;;;;30.48;17.45;;;179.20;2252.80;;;;;;5046434;28;20463;-69
2023/02/26 02:06:26;;;;;;;32.97;22.05;;;179.20;2252.80;;;;;;5041477;28;20376;-68
2023/02/26 02:08:52;;;;;;;36.05;21.13;;;154.50;2252.80;;;;;;5046962;28;20024;-68
2023/02/26 02:11:18;;;;;;;24.50;14.65;;;179.20;2252.80;;;;;;5050018;28;20033;-67
2023/02/26 02:13:53;;;;;;;28.42;17.65;;;154.50;2252.80;;;;;;5036599;28;20029;-66
2023/02/26 02:16:51;;;;;;;24.15;15.45;;;154.50;2252.80;;;;;;5029652;28;20045;-66
2023/02/26 02:19:41;;;;;;;27.88;16.00;;;154.50;2252.80;;;;;;5038581;28;20017;-68
2023/02/26 02:22:25;;;;;;;24.35;16.30;;;154.50;2252.80;;;;;;5030778;28;20087;-66
2023/02/26 02:25:10;;;;;;;31.63;17.52;;;154.40;2252.80;;;;;;5030085;28;20022;-66
2023/02/26 02:27:35;;;;;;;29.05;19.00;;;154.30;2252.80;;;;;;5029598;28;20029;-68
2023/02/26 02:30:21;;;;;;;29.13;17.70;;;154.40;2252.80;;;;;;5029475;28;20100;-68
2023/02/26 02:32:54;;;;;;;25.67;16.98;;;154.50;2252.80;;;;;;4987851;28;20492;-67
2023/02/26 02:35:40;;;;;;;36.20;18.63;;;154.50;2252.80;;;;;;4987930;28;20034;-67
2023/02/26 02:38:17;;;;;;;27.75;17.80;;;154.50;2252.80;;;;;;4988144;28;20029;-67
2023/02/26 02:40:48;;;;;;;38.97;23.33;;;154.40;2252.80;;;;;;4987787;28;20101;-69
2023/02/26 02:43:21;;;;;;;25.95;17.48;;;154.30;2252.80;;;;;;4988056;28;20034;-67
2023/02/26 02:45:53;;;;;;;23.70;16.80;;;154.50;2252.80;;;;;;4987929;28;20085;-67
2023/02/26 02:48:33;;;;;;;23.30;14.77;;;154.30;2252.80;;;;;;5022677;28;20076;-64
2023/02/26 02:51:22;;;;;;;26.08;16.92;;;154.20;2252.80;;;;;;5026732;28;20084;-68
2023/02/26 02:54:00;;;;;;;17.95;12.32;;;154.30;2252.80;;;;;;5026833;28;20116;-67
2023/02/26 02:56:36;;;;;;;31.23;18.95;;;154.20;2252.80;;;;;;5027390;28;20132;-66
2023/02/26 02:59:20;;;;;;;35.33;21.73;;;154.10;2252.80;;;;;;5027199;28;20014;-68
2023/02/26 03:01:52;;;;;;;14.18;10.23;;;154.10;2252.80;;;;;;5027080;28;20018;-69
2023/02/26 03:04:18;;;;;;;16.67;11.85;;;154.10;2252.80;;;;;;5027021;28;20029;-67
2023/02/26 03:06:48;;;;;;;16.13;11.25;;;153.90;2252.80;;;;;;5027336;28;20065;-66
2023/02/26 03:09:15;;;;;;;17.73;12.27;;;153.80;2252.80;;;;;;5035736;28;20390;-68
2023/02/26 03:11:41;;;;;;;25.60;18.05;;;153.90;2252.80;;;;;;5060099;28;20386;-68
2023/02/26 03:14:09;;;;;;;20.45;12.75;;;154.00;2252.80;;;;;;5050809;28;20029;-68
2023/02/26 03:17:18;;;;;;;20.20;12.65;;;154.10;2252.80;;;;;;5050334;28;20031;-65
2023/02/26 03:20:11;;;;;;;23.13;14.65;;;154.00;2252.80;;;;;;5049317;28;20527;-67
2023/02/26 03:22:44;;;;;;;21.92;13.15;;;153.80;2252.80;;;;;;5048848;28;20036;-65
2023/02/26 03:25:48;;;;;;;34.10;22.33;;;153.80;2252.80;;;;;;5048660;28;20513;-68
2023/02/26 03:28:24;;;;;;;26.13;16.05;;;153.80;2252.80;;;;;;5023961;28;20143;-66
2023/02/26 03:31:01;;;;;;;21.45;14.63;;;153.90;2252.80;;;;;;5028269;28;20357;-69
2023/02/26 03:33:27;;;;;;;13.75;9.07;;;153.80;2252.80;;;;;;5030960;28;20045;-67
2023/02/26 03:36:12;;;;;;;15.48;9.80;;;153.70;2252.80;;;;;;5030847;28;20022;-67
2023/02/26 03:38:50;;;;;;;12.10;7.22;;;128.90;2252.80;;;;;;5030707;28;20037;-68
2023/02/26 03:41:41;;;;;;;9.20;6.60;;;128.90;2252.80;;;;;;5030839;28;20021;-68
2023/02/26 03:44:12;;;;;;;12.00;9.15;;;128.60;2252.80;;;;;;5030417;28;20469;-67
2023/02/26 03:46:44;;;;;;;13.90;9.45;;;128.80;2252.80;;;;;;5030519;28;20049;-68
2023/02/26 03:49:16;;;;;;;16.48;11.07;;;128.60;2252.80;;;;;;5030954;28;20049;-68
2023/02/26 03:51:45;;;;;;;;;;;128.70;2252.80;;;;;;5030609;28;20056;-68
2023/02/26 03:54:26;;;;;;;8.77;6.57;;;128.60;2252.80;;;;;;5030433;28;19909;-68
2023/02/26 03:56:52;;;;;;;9.25;6.38;;;128.60;2252.80;;;;;;5030363;28;20017;-68
2023/02/26 03:59:18;;;;;;;13.43;9.02;;;128.70;2252.80;;;;;;5030530;28;20611;-68
2023/02/26 04:01:54;;;;;;;8.45;5.47;;;128.50;2252.80;;;;;;5030695;28;20026;-68
2023/02/26 04:04:32;;;;;;;6.53;3.50;;;128.40;2252.80;;;;;;5045048;28;20063;-68
2023/02/26 04:06:58;;;;;;;5.57;2.90;;;128.40;2252.80;;;;;;5071943;28;20032;-68
2023/02/26 04:09:24;;;;;;;7.22;4.70;;;128.40;2252.80;;;;;;5072668;28;20024;-67
2023/02/26 04:11:53;;;;;;;22.67;14.13;;;128.20;2252.80;;;;;;5058949;28;20060;-67
2023/02/26 04:14:19;;;;;;;5.55;3.88;;;128.30;2252.80;;;;;;5072206;28;20074;-68
2023/02/26 04:16:45;;;;;;;64.68;31.60;;;128.30;2252.80;;;;;;5072410;28;20056;-66
2023/02/26 04:19:10;;;;;;;7.85;5.30;;;128.50;2252.80;;;;;;5063515;28;20036;-68
2023/02/26 04:21:36;;;;;;;3.53;2.00;;;128.50;2252.80;;;;;;5067605;28;20029;-68
2023/02/26 04:24:02;;;;;;;4.32;2.63;;;128.30;2252.80;;;;;;5072682;28;20413;-68
2023/02/26 04:26:28;;;;;;;3.70;2.00;;;128.20;2252.80;;;;;;5072152;28;20037;-69
2023/02/26 04:28:53;;;;;;;6.88;3.67;;;128.20;2252.80;;;;;;5072613;28;20379;-67
2023/02/26 04:31:19;;;;;;;5.75;3.45;;;128.40;2252.80;;;;;;5071720;28;20021;-68
2023/02/26 04:33:45;;;;;;;78.57;36.92;;;128.30;2252.80;;;;;;5072161;28;20028;-68
2023/02/26 04:36:11;;;;;;;46.75;22.23;;;103.30;2227.20;;;;;;5071432;28;20040;-69
2023/02/26 04:38:36;;;;;;;8.13;4.78;;;103.30;2227.20;;;;;;5072240;28;20029;-68
2023/02/26 04:41:02;;;;;;;15.55;9.02;;;103.20;2227.20;;;;;;5071629;28;20024;-68
2023/02/26 04:43:28;;;;;;;3.92;2.10;;;103.30;2227.20;;;;;;5071117;28;20170;-66
2023/02/26 04:45:54;;;;;;;3.30;2.20;;;103.10;2227.20;;;;;;5071810;28;20466;-67
2023/02/26 04:48:19;;;;;;;5.30;4.35;;;103.00;2227.20;;;;;;5045237;28;20053;-68
2023/02/26 04:50:45;;;;;;;19.38;10.60;;;103.30;2227.20;;;;;;5033341;28;20026;-66
2023/02/26 04:53:12;;;;;;;14.95;7.85;;;103.30;2227.20;;;;;;5051625;28;20493;-68
2023/02/26 04:55:40;;;;;;;6.65;4.25;;;128.00;2252.80;;;;;;5051399;28;20025;-67
2023/02/26 04:58:06;;;;;;;7.57;5.13;;;128.10;2252.80;;;;;;5051743;28;20041;-67
2023/02/26 05:00:32;;;;;;;13.05;8.93;;;128.20;2252.80;;;;;;5038829;28;20017;-66
2023/02/26 05:02:57;;;;;;;22.55;15.15;;;128.30;2252.80;;;;;;5051367;28;20378;-66
2023/02/26 05:05:24;;;;;;;22.42;14.20;;;128.20;2252.80;;;;;;5051437;28;20017;-68
2023/02/26 05:07:52;;;;;;;9.80;7.68;;;128.30;2252.80;;;;;;5051085;28;20124;-67
2023/02/26 05:10:18;;;;;;;6.18;3.55;;;128.30;2252.80;;;;;;5064736;28;20028;-67
2023/02/26 05:12:47;;;;;;;25.15;13.38;;;128.30;2252.80;;;;;;5051311;28;20486;-67
2023/02/26 05:15:12;;;;;;;25.85;14.95;;;128.30;2252.80;;;;;;5038200;28;20038;-66
2023/02/26 05:17:38;;;;;;;15.20;7.80;;;128.30;2252.80;;;;;;5051313;28;20396;-67
2023/02/26 05:20:08;;;;;;;8.02;4.07;;;128.10;2252.80;;;;;;5037733;28;20030;-68
2023/02/26 05:22:35;;;;;;;7.03;4.45;;;128.20;2252.80;;;;;;5051512;28;20017;-66
2023/02/26 05:25:01;;;;;;;11.65;6.00;;;103.30;2227.20;;;;;;5037341;28;20107;-67
2023/02/26 05:27:27;;;;;;;6.22;4.07;;;103.20;2227.20;;;;;;5061241;28;20127;-67
2023/02/26 05:29:52;;;;;;;5.90;4.28;;;103.30;2227.20;;;;;;5054182;28;20021;-67
2023/02/26 05:32:18;;;;;;;4.43;2.60;;;103.20;2227.20;;;;;;5040819;28;20597;-67
2023/02/26 05:34:44;;;;;;;10.80;6.07;;;128.00;2252.80;;;;;;5047450;28;20028;-66
2023/02/26 05:37:09;;;;;;;12.50;7.47;;;128.00;2252.80;;;;;;5047037;28;20166;-67
2023/02/26 05:39:35;;;;;;;13.20;7.10;;;128.10;2252.80;;;;;;5040940;28;20021;-66
2023/02/26 05:42:01;;;;;;;8.65;5.00;;;128.10;2252.80;;;;;;5050616;28;20043;-68
2023/02/26 05:44:27;;;;;;;10.55;5.30;;;128.00;2252.80;;;;;;5037618;28;20036;-68
2023/02/26 05:46:53;;;;;;;7.60;4.15;;;128.00;2252.80;;;;;;5054131;28;20057;-68
2023/02/26 05:49:18;;;;;;;7.50;4.80;;;128.00;2252.80;;;;;;5052783;28;20045;-68
2023/02/26 05:51:44;;;;;;;5.40;3.30;;;103.30;2227.20;;;;;;5052329;28;20740;-67
2023/02/26 05:54:10;;;;;;;6.57;3.97;;;103.20;2227.20;;;;;;5064514;28;20077;-68
2023/02/26 05:56:36;;;;;;;5.72;4.03;;;103.10;2227.20;;;;;;5042582;28;20036;-69
2023/02/26 05:59:02;;;;;;;5.38;3.00;;;103.20;2227.20;;;;;;5048798;28;20029;-73
2023/02/26 06:01:28;;;;;;;7.72;5.82;;;128.00;2252.80;;;;;;5051767;28;20028;-70
2023/02/26 06:03:53;;;;;;;4.60;3.05;;;103.20;2227.20;;;;;;5051957;28;20024;-64
2023/02/26 06:06:20;;;;;;;6.05;3.65;;;102.90;2227.20;;;;;;5050592;28;20068;-69
2023/02/26 06:08:46;;;;;;;5.45;2.58;;;102.70;2227.20;;;;;;5051126;28;20040;-66
2023/02/26 06:11:12;;;;;;;3.90;2.60;;;102.70;2227.20;;;;;;5050633;28;20162;-66
2023/02/26 06:13:39;;;;;;;5.18;3.00;;;102.80;2227.20;;;;;;5049802;28;20033;-68
2023/02/26 06:16:04;;;;;;;3.80;2.40;;;102.60;2227.20;;;;;;5050310;28;20082;-67
2023/02/26 06:18:32;;;;;;;6.43;4.80;;;102.50;2227.20;;;;;;5049879;28;20155;-66
2023/02/26 06:20:58;;;;;;;3.95;3.35;;;102.70;2227.20;;;;;;5049777;28;20040;-66
2023/02/26 06:23:24;;;;;;;5.95;4.00;;;102.90;2227.20;;;;;;5050047;28;20106;-66
2023/02/26 06:25:51;;;;;;;3.50;2.58;;;102.90;2227.20;;;;;;5049749;28;20025;-67
2023/02/26 06:28:17;;;;;;;6.82;2.75;;;103.10;2227.20;;;;;;5049641;28;20037;-69
2023/02/26 06:30:43;;;;;;;7.18;5.78;;;103.20;2227.20;;;;;;5050403;28;20060;-67
2023/02/26 06:33:09;;;;;;;38.42;23.02;;;103.20;2227.20;;;;;;5049975;28;20021;-68
2023/02/26 06:35:35;;;;;;;8.00;4.32;;;103.20;2227.20;;;;;;5049942;28;20435;-67
2023/02/26 06:38:00;;;;;;;5.40;2.90;;;128.00;2252.80;;;;;;5035318;28;20025;-68
2023/02/26 06:40:26;;;;;;;4.15;3.25;;;103.20;2227.20;;;;;;5028688;28;20021;-69
2023/02/26 06:42:52;;;;;;;8.20;5.40;;;103.30;2227.20;;;;;;5028742;28;20029;-68
2023/02/26 06:45:18;;;;;;;14.70;9.85;;;128.00;2252.80;;;;;;5028394;28;20387;-69
2023/02/26 06:47:44;;;;;;;47.17;38.05;;;128.10;2252.80;;;;;;5028616;28;20050;-69
2023/02/26 06:50:10;;;;;;;33.65;21.73;;;128.00;2252.80;;;;;;5028447;28;20026;-68
2023/02/26 06:52:36;;;;;;;83.97;70.95;;;103.20;2227.20;;;;;;5029683;28;20036;-69
2023/02/26 06:55:03;;;;;;;61.28;46.70;;;103.30;2227.20;;;;;;5049945;28;20021;-68
2023/02/26 06:57:28;;;;;;;107.20;87.40;;;128.20;2252.80;;;;;;5045055;28;20061;-67
2023/02/26 06:59:54;;;;;;;53.78;39.05;;;128.40;2252.80;;;;;;5040551;28;20037;-65
2023/02/26 07:02:21;;;;;;;43.58;32.53;;;128.50;2252.80;;;;;;5049610;28;20029;-68
2023/02/26 07:04:47;;;;;;;24.00;19.15;;;128.40;2252.80;;;;;;5049847;28;20029;-67
2023/02/26 07:07:14;;;;;;;30.27;23.83;;;128.60;2252.80;;;;;;5053239;28;20106;-66
2023/02/26 07:09:40;;;;;;;25.63;20.95;;;128.60;2252.80;;;;;;5053840;28;20028;-65
2023/02/26 07:12:06;;;;;;;21.48;16.65;;;128.40;2252.80;;;;;;5053210;28;20029;-66
2023/02/26 07:14:33;;;;;;;13.35;8.93;;;128.40;2252.80;;;;;;5054103;28;20037;-68
2023/02/26 07:16:59;;;;;;;8.98;6.45;;;128.40;2252.80;;;;;;5053372;28;20036;-67
2023/02/26 07:19:25;;;;;;;9.05;6.25;;;128.20;2252.80;;;;;;5038866;28;20035;-67
2023/02/26 07:21:50;;;;;;;8.63;6.40;;;128.00;2252.80;;;;;;5051415;28;20401;-67
2023/02/26 07:24:17;;;;;;;15.90;13.82;;;103.20;2227.20;;;;;;5038305;28;20021;-67
2023/02/26 07:26:42;;;;;;;12.85;11.55;;;103.20;2227.20;;;;;;5017735;28;20045;-67
2023/02/26 07:29:08;;;;;;;10.85;8.02;;;103.20;2227.20;;;;;;5032851;28;20430;-67
2023/02/26 07:31:34;;;;;;;9.25;5.50;;;128.00;2252.80;;;;;;5041064;28;20064;-67
2023/02/26 07:34:00;;;;;;;8.43;6.18;;;128.00;2252.80;;;;;;5052890;28;20025;-68
2023/02/26 07:36:25;;;;;;;8.07;5.72;;;103.30;2227.20;;;;;;5053176;28;20036;-69
2023/02/26 07:38:51;;;;;;;15.75;9.55;;;103.00;2227.20;;;;;;5052773;28;20116;-67
2023/02/26 07:41:16;;;;;;;12.20;8.63;;;103.00;2227.20;;;;;;5053030;28;20090;-67
2023/02/26 07:43:42;;;;;;;17.02;11.15;;;103.10;2227.20;;;;;;5042993;28;20052;-65
2023/02/26 07:46:08;;;;;;;16.83;12.27;;;103.00;2227.20;;;;;;5043603;28;20029;-65
2023/02/26 07:48:34;;;;;;;38.75;29.70;;;102.90;2227.20;;;;;;5053512;28;20040;-68
2023/02/26 07:50:59;;;;;;;12.27;9.93;;;102.90;2227.20;;;;;;5061329;28;20021;-70
2023/02/26 07:53:25;;;;;;;9.27;6.57;;;103.10;2227.20;;;;;;5055359;28;20051;-68
2023/02/26 07:55:51;;;;;;;26.63;20.15;;;103.20;2227.20;;;;;;5047541;28;20025;-68
2023/02/26 07:58:17;;;;;;;10.73;7.20;;;128.00;2252.80;;;;;;5056941;28;20333;-71
2023/02/26 08:00:43;;;;;;;10.13;7.40;;;103.30;2227.20;;;;;;5043573;28;20111;-73
2023/02/26 08:03:09;;;;;;;13.05;8.57;;;128.00;2252.80;;;;;;5054169;28;20078;-67
2023/02/26 08:05:35;;;;;;;13.25;9.40;;;128.10;2252.80;;;;;;5038990;28;20033;-67
2023/02/26 08:08:02;;;;;;;16.33;12.02;;;103.30;2227.20;;;;;;5039978;28;20074;-68
2023/02/26 08:10:28;;;;;;;9.85;6.78;;;128.10;2252.80;;;;;;5038325;28;20030;-68
2023/02/26 08:12:54;;;;;;;9.05;5.63;;;128.10;2252.80;;;;;;5040178;28;20031;-67
2023/02/26 08:15:19;;;;;;;26.25;19.42;;;103.20;2227.20;;;;;;5052085;28;20029;-67
2023/02/26 08:17:46;;;;;;;10.93;7.80;;;103.20;2227.20;;;;;;5044584;28;20029;-65
2023/02/26 08:20:14;;;;;;;16.50;11.50;;;103.30;2227.20;;;;;;5046727;28;20525;-66
2023/02/26 08:22:39;;;;;;;11.90;7.63;;;103.30;2227.20;;;;;;5052089;28;20024;-68
2023/02/26 08:25:06;;;;;;;9.77;6.57;;;103.20;2227.20;;;;;;5052004;28;20036;-67
2023/02/26 08:27:32;;;;;;;17.02;10.90;;;103.20;2227.20;;;;;;5060172;28;20040;-66
2023/02/26 08:29:58;;;;;;;18.63;13.38;;;128.40;2252.80;;;;;;5057022;28;20151;-68
2023/02/26 08:32:25;;;;;;;10.85;7.63;;;128.20;2252.80;;;;;;5052343;28;20021;-67
2023/02/26 08:34:51;;;;;;;9.98;6.82;;;128.10;2252.80;;;;;;5052097;28;20068;-67
2023/02/26 08:37:17;;;;;;;8.82;5.90;;;128.10;2252.80;;;;;;5051700;28;20053;-67
2023/02/26 08:39:43;;;;;;;11.38;10.27;;;128.00;2252.80;;;;;;5051565;28;20032;-67
2023/02/26 08:42:09;;;;;;;11.27;9.75;;;128.00;2252.80;;;;;;5051682;28;20029;-66
2023/02/26 08:44:35;;;;;;;9.52;8.18;;;128.10;2252.80;;;;;;5052202;28;20026;-66
2023/02/26 08:47:02;;;;;;;9.02;6.85;;;128.30;2252.80;;;;;;5051926;28;20118;-67
2023/02/26 08:49:28;;;;;;;14.30;12.73;;;128.60;2252.80;;;;;;5032165;28;20030;-68
2023/02/26 08:51:54;;;;;;;14.32;10.57;;;128.90;2252.80;;;;;;5030717;28;20526;-67
2023/02/26 08:54:20;;;;;;;15.52;13.63;;;153.60;2252.80;;;;;;5046398;28;20487;-66
2023/02/26 08:56:45;;;;;;;14.05;11.65;;;153.60;2252.80;;;;;;5051648;28;20485;-67
2023/02/26 08:59:12;;;;;;;9.82;7.50;;;154.30;2252.80;;;;;;5051215;28;20028;-67
2023/02/26 09:01:38;;;;;;;13.25;10.88;;;153.60;2252.80;;;;;;5051662;28;20383;-67
2023/02/26 09:04:04;;;;;;;27.92;25.05;;;153.80;2252.80;;;;;;5051358;28;20025;-66
2023/02/26 09:06:30;;;;;;;10.68;7.60;;;153.90;2252.80;;;;;;5051129;28;20029;-66
2023/02/26 09:08:55;;;;;;;6.05;4.97;;;153.90;2252.80;;;;;;5051509;28;20017;-67
2023/02/26 09:11:21;;;;;;;62.22;50.83;;;154.10;2252.80;;;;;;5052152;28;20405;-68
2023/02/26 09:13:47;;;;;;;14.65;9.82;;;154.20;2252.80;;;;;;5051375;28;20467;-65
2023/02/26 09:16:13;;;;;;;26.52;23.88;;;154.40;2252.80;;;;;;5030609;28;20033;-69
2023/02/26 09:18:39;;;;;;;20.92;15.90;;;179.20;2252.80;;;;;;5044417;28;20025;-70
2023/02/26 09:21:05;;;;;;;18.20;11.55;;;179.30;2252.80;;;;;;5040119;28;20025;-68
2023/02/26 09:23:31;;;;;;;95.63;58.80;;;179.40;2252.80;;;;;;5051497;28;20485;-69
2023/02/26 09:25:57;;;;;;;50.28;38.97;;;179.40;2252.80;;;;;;5052219;28;20108;-68
2023/02/26 09:28:24;;;;;;;19.27;12.38;;;179.50;2252.80;;;;;;5048967;28;20048;-68
2023/02/26 09:30:54;;;;;;;19.67;10.57;;;179.50;2252.80;;;;;;5039700;28;20025;-66
2023/02/26 09:33:20;;;;;;;12.32;9.55;;;179.60;2252.80;;;;;;5050902;28;20021;-69
2023/02/26 09:35:50;;;;;;;9.48;8.35;;;179.70;2252.80;;;;;;5060080;28;20446;-67
2023/02/26 09:38:17;;;;;;;11.63;8.70;;;179.60;2252.80;;;;;;5049400;28;20033;-64
2023/02/26 09:40:59;;;;;;;13.82;9.60;;;179.80;2252.80;;;;;;5031100;28;20030;-69
2023/02/26 09:43:52;;;;;;;13.00;8.70;;;179.90;2252.80;;;;;;5030132;28;20037;-67
2023/02/26 09:46:21;;;;;;;13.27;8.47;;;180.00;2252.80;;;;;;5029964;28;20099;-68
2023/02/26 09:48:48;;;;;;;12.95;7.75;;;179.90;2252.80;;;;;;5047711;28;20021;-65
2023/02/26 09:51:20;;;;;;;28.42;20.30;;;180.00;2252.80;;;;;;5036013;28;20029;-67
2023/02/26 09:53:48;;;;;;;9.35;8.15;;;179.90;2252.80;;;;;;5046668;28;20514;-68
2023/02/26 09:56:21;;;;;;;44.78;38.00;;;179.70;2252.80;;;;;;5050596;28;20486;-65
2023/02/26 09:58:47;;;;;;;7.90;6.13;;;179.60;2252.80;;;;;;5050300;28;20021;-64
2023/02/26 10:01:22;;;;;;;10.13;6.38;;;179.40;2252.80;;;;;;5048423;28;20115;-64
2023/02/26 10:03:55;;;;;;;6.82;5.35;;;179.60;2252.80;;;;;;5029432;28;20026;-63
2023/02/26 10:06:26;;;;;;;11.73;8.05;;;179.70;2252.80;;;;;;5039010;28;20017;-64
2023/02/26 10:09:22;;;;;;;9.90;6.03;;;179.80;2252.80;;;;;;5029374;28;20026;-63
2023/02/26 10:12:02;;;;;;;6.57;3.47;;;179.60;2252.80;;;;;;5038202;28;20454;-64
2023/02/26 10:14:28;;;;;;;6.95;4.30;;;179.60;2252.80;;;;;;5031163;28;20037;-64
2023/02/26 10:17:19;;;;;;;9.00;5.30;;;179.70;2252.80;;;;;;5028085;28;20112;-65
2023/02/26 10:19:50;;;;;;;16.08;10.27;;;179.50;2252.80;;;;;;5032333;28;20052;-65
2023/02/26 10:22:42;;;;;;;16.13;10.73;;;179.70;2252.80;;;;;;5028915;28;20029;-65
2023/02/26 10:25:43;;;;;;;7.78;5.68;;;179.70;2252.80;;;;;;5032695;28;20030;-64
2023/02/26 10:28:37;;;;;;;13.10;8.75;;;179.70;2252.80;;;;;;4965159;28;20057;-64
2023/02/26 10:31:14;;;;;;;8.10;5.28;;;179.40;2252.80;;;;;;4965181;28;20034;-63
2023/02/26 10:34:09;;;;;;;69.05;48.88;;;179.30;2252.80;;;;;;4964229;28;20033;-65
2023/02/26 10:37:14;;;;;;;48.63;28.13;;;179.30;2252.80;;;;;;4963875;28;20053;-64
2023/02/26 10:40:00;;;;;;;;;;;154.50;2252.80;;;;;;4962682;28;20547;-67
2023/02/26 10:46:08;;;;;;;4.82;3.30;;;179.20;2252.80;;;;;;5314028;22;20199;-62
2023/02/26 10:49:05;;;;;;;21.20;13.30;;;179.40;2252.80;;;;;;5014708;28;20149;-65
2023/02/26 10:51:35;;;;;;;10.23;5.90;;;179.30;2252.80;;;;;;5013304;28;20044;-63
2023/02/26 10:54:49;;;;;;;40.75;21.75;;;179.30;2252.80;;;;;;5014523;28;20499;-63
2023/02/26 10:57:27;;;;;;;8.10;5.22;;;179.20;2252.80;;;;;;4993213;28;20033;-63
2023/02/26 10:59:53;;;;;;;6.60;3.20;;;154.40;2252.80;;;;;;4992892;28;20065;-63
2023/02/26 11:02:41;;;;;;;41.50;24.17;;;154.10;2252.80;;;;;;4991101;28;20030;-63
2023/02/26 11:05:18;;;;;;;11.63;6.30;;;154.20;2252.80;;;;;;4992442;28;20043;-64
2023/02/26 11:07:51;;;;;;;5.57;3.95;;;154.50;2252.80;;;;;;4990384;28;20404;-64
2023/02/26 11:10:20;;;;;;;22.63;13.60;;;154.40;2252.80;;;;;;4989461;28;20376;-62
2023/02/26 11:12:46;;;;;;;9.35;5.20;;;154.40;2252.80;;;;;;4994265;28;20029;-62
2023/02/26 11:15:18;;;;;;;6.25;4.10;;;154.30;2252.80;;;;;;4996037;28;20033;-61
2023/02/26 11:17:47;;;;;;;5.95;3.85;;;154.00;2252.80;;;;;;4991395;28;20085;-63
2023/02/26 11:20:30;;;;;;;8.57;5.65;;;154.30;2252.80;;;;;;4985999;28;20037;-63
2023/02/26 11:22:59;;;;;;;13.75;9.38;;;154.20;2252.80;;;;;;4991736;28;20566;-64
2023/02/26 11:25:28;;;;;;;22.40;20.30;;;154.20;2252.80;;;;;;4988740;28;20498;-62
2023/02/26 11:28:01;;;;;;;18.15;15.73;;;153.90;2252.80;;;;;;4994033;28;20030;-62
2023/02/26 11:30:31;;;;;;;20.35;18.55;;;153.60;2252.80;;;;;;4998527;28;20116;-63
2023/02/26 11:33:13;;;;;;;31.75;20.13;;;153.70;2252.80;;;;;;5024336;28;20725;-65
2023/02/26 11:35:39;;;;;;;17.88;13.48;;;154.00;2252.80;;;;;;5024844;28;20036;-65
2023/02/26 11:38:05;;;;;;;13.35;8.85;;;154.10;2252.80;;;;;;5008868;28;20038;-64
2023/02/26 11:40:42;;;;;;;12.25;8.82;;;154.20;2252.80;;;;;;5025206;28;20025;-63
2023/02/26 11:43:13;;;;;;;6.50;4.97;;;154.00;2252.80;;;;;;5017999;28;20026;-63
2023/02/26 11:45:42;;;;;;;18.20;12.10;;;154.00;2252.80;;;;;;5009369;28;20503;-64
2023/02/26 11:48:17;;;;;;;8.00;7.13;;;154.00;2252.80;;;;;;4982894;28;20069;-64
2023/02/26 11:50:47;;;;;;;6.35;5.53;;;153.90;2252.80;;;;;;4988056;28;20026;-66
2023/02/26 11:53:38;;;;;;;10.68;7.25;;;153.80;2252.80;;;;;;4985102;28;20065;-63
2023/02/26 11:56:14;;;;;;;6.43;5.03;;;154.20;2252.80;;;;;;4978018;28;20050;-64
2023/02/26 11:58:44;;;;;;;5.93;4.45;;;154.50;2252.80;;;;;;4988691;28;20536;-64
2023/02/26 12:01:12;;;;;;;7.53;5.57;;;154.40;2252.80;;;;;;4988143;28;20038;-63
2023/02/26 12:03:42;;;;;;;6.57;5.05;;;179.30;2252.80;;;;;;4989650;28;20030;-66
2023/02/26 12:06:23;;;;;;;13.40;8.50;;;179.60;2252.80;;;;;;4989859;28;20653;-63
2023/02/26 12:08:51;;;;;;;7.00;4.20;;;179.40;2252.80;;;;;;4990024;28;20026;-65
2023/02/26 12:11:55;;;;;;;6.03;3.85;;;154.50;2252.80;;;;;;4987949;28;20026;-63
2023/02/26 12:14:56;;;;;;;;;;;154.00;2252.80;;;;;;4990109;28;20049;-64
2023/02/26 12:17:45;;;;;;;4.97;4.00;;;154.10;2252.80;;;;;;4948203;28;20395;-63
2023/02/26 12:20:37;;;;;;;48.85;24.48;;;153.60;2252.80;;;;;;4984900;28;20089;-63
2023/02/26 12:23:30;;;;;;;7.10;5.47;;;128.90;2252.80;;;;;;4987735;28;20354;-64
2023/02/26 12:26:01;;;;;;;15.83;14.13;;;153.70;2252.80;;;;;;4988146;28;20030;-63
2023/02/26 12:28:49;;;;;;;13.55;11.40;;;153.60;2252.80;;;;;;4988442;28;20811;-63
2023/02/26 12:31:42;;;;;;;5.93;3.72;;;153.60;2252.80;;;;;;4986510;28;20061;-63
2023/02/26 12:34:07;;;;;;;6.78;4.00;;;128.90;2252.80;;;;;;4985001;28;20366;-63